BIRKEGPC

Guest
Details From BIRK - Reykjavik
To EGPC - Wick
Flight Number -
Tags Generated
Created
Modified
Stats Distance 638 nm / 1,182 km
Max Altitude 0 ft / 0 m
Waypoints 3
Social Downloads 0
Likes 0
Share VATSIM

Download

Looking for another format? Having issues loading an existing format? Contact us
Advertisement - Login to hide

Notes

Generated

Route

BIRK WIK EGPC

ID Type Via Altitude Latitude Longitude Leg Dist Tot Dist Heading (true) Name
O BIRK APT - 0 ft / 0 m 64.12743˚ -21.94699˚ - 0 nm - -
WIK VOR - 0 ft / 0 m 58.45889˚ -3.10028˚ 637 nm 637 nm 114° / 130° WICK VOR-DME
O EGPC APT - 0 ft / 0 m 58.45582˚ -3.10161˚ 0 nm 637 nm 193° / 193° -

Altitude Profile

Advertisement - Login to hide

Weather


0- 5 10 15 20 25 30 35+ Temperature / ° C

Clouds and Precipitation
Forecast for 2018-05-22 06:00 UTC. Updated 4 hours ago

Ground ~20,000 ft ~40,000 ft Winds

BIRK

Details ICAO BIRK (RKV)
Name Reykjavik
Region Iceland
Timezone Atlantic/Reykjavik (UTC+0.0)
Stats Elevation 47 ft / 14 m (AMSL)
Location 64.129644° -21.940609°
Runways 3
Magnetic Variation 13.659° W

METAR

BIRK 220900Z 14018KT 9999 -RA FEW022 SCT034 OVC043 07/03 Q1010

Decode

TAF

TAF BIRK 220801Z 2209/2309 14018G28KT 9999 -RA SCT025 OVC035 TX09/2221Z TN05/2305Z BECMG 2209/2212 15028G38KT 5000 RADZ BKN010 OVC020 BECMG 2214/2216 15035G48KT PROB40 TEMPO 2215/2220 3000 RADZ BR BKN006 OVC012 BECMG 2220/2222 18022KT 9999 -SHRA SCT020 BKN030 TEMPO 2300/2305 SHRA

Decode

Departure Runways

ID Width Length Bearing (true) Bearing (mag) Surface Threshold Offset Overrun Length
01 148 ft / 45 m 5,129 ft / 1,563 m 355.27° 8.93° Asphalt 262 ft / 80 m 0 ft / 0 m
06 98 ft / 30 m 2,800 ft / 853 m 46.35° 60.01° Asphalt 299 ft / 91 m 0 ft / 0 m
13 148 ft / 45 m 4,023 ft / 1,226 m 116.28° 129.94° Asphalt 0 ft / 0 m 0 ft / 0 m
19 148 ft / 45 m 5,129 ft / 1,563 m 175.27° 188.93° Asphalt 0 ft / 0 m 0 ft / 0 m
24 98 ft / 30 m 2,800 ft / 853 m 226.37° 240.03° Asphalt 0 ft / 0 m 0 ft / 0 m
31 148 ft / 45 m 4,023 ft / 1,226 m 296.30° 309.96° Asphalt 213 ft / 65 m 0 ft / 0 m

EGPC

Details ICAO EGPC (WIC)
Name Wick
Region United Kingdom
Timezone Europe/London (UTC+1.0)
Stats Elevation 126 ft / 38 m (AMSL)
Location 58.457866° -3.092981°
Runways 2
Magnetic Variation 2.548° W

METAR

EGPC 220850Z 05013KT 9999 SCT021 10/06 Q1027

Decode

TAF

Not found

Destination Runways

ID Width Length Bearing (true) Bearing (mag) Surface Threshold Offset Overrun Length
08 148 ft / 45 m 3,390 ft / 1,033 m 75.45° 78.00° Asphalt 0 ft / 0 m 0 ft / 0 m
13 148 ft / 45 m 5,978 ft / 1,822 m 127.02° 129.57° Asphalt 814 ft / 248 m 0 ft / 0 m
26 148 ft / 45 m 3,390 ft / 1,033 m 255.46° 258.01° Asphalt 0 ft / 0 m 0 ft / 0 m
31 148 ft / 45 m 5,978 ft / 1,822 m 307.04° 309.59° Asphalt 1,010 ft / 308 m 0 ft / 0 m

Popular Alternatives